Latest Weather Observations for Bellambi

IDN60901

Issued at 8:11 pm EST Friday 28 April 2017 (issued every 10 minutes, with the page automatically refreshed every 10 minutes)

About weather observations | Map of Sydney area stations | Latest observations for Sydney area | Other Formats
Station Details ID: 068228 Name: BELLAMBI AWS Lat: -34.37 Lon: 150.93 Height: 10.0 m
Data from the previous 72 hours. | See also: Recent months at Bellambi
Date/Time
EST
Temp
°C
App
Temp
°C
Dew
Point
°C
Rel
Hum
%
Delta-T
°C
Wind Press
QNH
hPa
Press
MSL
hPa
Rain since
9am
mm
Dir  Spd
km/h
Gust
km/h
Spd
kts
Gust
kts
28/08:00pm 13.9 12.3 8.9 72 2.5 NW 7 9 4 5 - - 0.0
28/07:30pm 13.9 12.4 9.1 73 2.4 WNW 7 11 4 6 - - 0.0
28/07:00pm 14.4 12.5 9.2 71 2.7 WNW 9 9 5 5 - - 0.0
28/06:30pm 14.9 13.4 9.3 69 2.9 WNW 7 9 4 5 - - 0.0
28/06:00pm 15.5 14.0 9.2 66 3.2 W 7 9 4 5 - - 0.0
28/05:30pm 16.3 14.7 8.8 61 3.8 W 7 11 4 6 - - 0.0
28/05:00pm 17.5 15.3 9.2 58 4.3 S 11 13 6 7 - - 0.0
28/04:30pm 17.9 15.2 9.0 56 4.6 SSE 13 20 7 11 - - 0.0
28/04:00pm 18.3 15.3 9.1 55 4.8 S 15 19 8 10 - - 0.0
28/03:30pm 18.3 14.8 8.6 53 5.0 SSE 17 20 9 11 - - 0.0
28/03:00pm 18.4 14.9 8.7 53 5.0 SSE 17 20 9 11 - - 0.0
28/02:30pm 18.5 15.1 9.0 54 5.0 SSE 17 22 9 12 - - 0.0
28/02:00pm 18.4 14.7 7.8 50 5.4 SSE 17 22 9 12 - - 0.0
28/01:30pm 18.5 14.9 8.2 51 5.3 SSE 17 22 9 12 - - 0.0
28/01:00pm 18.5 14.5 6.7 46 5.9 SSE 17 22 9 12 - - 0.0
28/12:30pm 18.3 13.7 6.5 46 5.9 S 20 26 11 14 - - 0.0
28/12:00pm 18.6 14.2 6.4 45 6.1 SSW 19 26 10 14 - - 0.0
28/11:30am 18.2 13.4 5.8 44 6.1 SW 20 28 11 15 - - 0.0
28/11:00am 17.4 13.0 6.6 49 5.3 SSW 19 24 10 13 - - 0.0
28/10:30am 17.2 12.6 6.7 50 5.2 SSW 20 30 11 16 - - 0.0
28/10:00am 16.6 12.1 6.1 50 5.1 SW 19 26 10 14 - - 0.0
28/09:30am 16.1 11.3 5.4 49 5.1 SW 20 28 11 15 - - 0.0
28/09:00am 15.6 10.8 4.9 49 5.0 SW 19 26 10 14 - - 0.0
28/08:30am 14.8 9.3 3.9 48 5.0 SW 22 30 12 16 - - 0.0
28/08:00am 14.0 9.4 3.5 49 4.7 WSW 17 22 9 12 - - 0.0
28/07:30am 13.1 7.9 2.6 49 4.6 WSW 19 26 10 14 - - 0.0
28/07:00am 12.5 7.1 2.4 50 4.4 SW 20 26 11 14 - - 0.0
28/06:30am 12.3 6.9 2.2 50 4.4 WSW 20 26 11 14 - - 0.0
28/06:00am 12.1 7.4 3.1 54 4.0 WSW 17 20 9 11 - - 0.0
28/05:30am 12.4 7.1 3.1 53 4.1 SW 20 28 11 15 - - 0.0
28/05:00am 12.4 6.7 3.1 53 4.1 WSW 22 30 12 16 - - 0.0
28/04:30am 12.3 7.1 3.3 54 4.0 WSW 20 30 11 16 - - 0.0
28/04:00am 12.3 7.2 3.3 54 4.0 WSW 19 28 10 15 - - 0.0
28/03:30am 12.4 7.1 3.1 53 4.1 WSW 20 30 11 16 - - 0.0
28/03:00am 12.3 7.1 2.7 52 4.2 WSW 19 24 10 13 - - 0.0
28/02:30am 12.3 7.5 2.5 51 4.3 WSW 17 22 9 12 - - 0.0
28/02:00am 12.3 7.8 2.2 50 4.4 WSW 15 20 8 11 - - 0.0
28/01:30am 12.3 7.4 1.9 49 4.5 SW 17 24 9 13 - - 0.0
28/01:00am 12.7 7.3 2.3 49 4.5 SW 20 32 11 17 - - 0.0
28/12:30am 13.1 7.5 3.2 51 4.4 SW 22 30 12 16 - - 0.0
28/12:00am 13.2 7.4 4.6 56 3.9 SW 24 32 13 17 - - 0.0
 
Date/Time
EST
Temp
°C
App
Temp
°C
Dew
Point
°C
Rel
Hum
%
Delta-T
°C
Wind Press
QNH
hPa
Press
MSL
hPa
Rain since
9am
mm
Dir  Spd
km/h
Gust
km/h
Spd
kts
Gust
kts
27/11:30pm 13.5 8.6 4.9 56 4.0 SW 20 30 11 16 - - 0.0
27/11:00pm 13.7 8.8 5.3 57 3.9 SW 20 26 11 14 - - 0.0
27/10:30pm 13.6 9.4 5.7 59 3.7 SW 17 20 9 11 - - 0.0
27/10:00pm 14.0 9.9 6.1 59 3.8 SW 17 22 9 12 - - 0.0
27/09:30pm 14.3 9.9 6.4 59 3.8 SW 19 26 10 14 - - 0.0
27/09:00pm 14.5 10.5 6.6 59 3.8 SW 17 22 9 12 - - 0.0
27/08:30pm 14.9 10.9 6.5 57 4.1 SW 17 24 9 13 - - 0.0
27/08:00pm 15.1 11.4 6.4 56 4.2 WSW 15 20 8 11 - - 0.0
27/07:30pm 15.4 11.7 6.4 55 4.4 WSW 15 20 8 11 - - 0.0
27/07:00pm 15.4 11.7 6.4 55 4.4 WSW 15 20 8 11 - - 0.0
27/06:30pm 15.8 11.3 6.3 53 4.6 WSW 19 24 10 13 - - 0.0
27/06:00pm 16.3 11.2 6.2 51 4.9 SW 22 30 12 16 - - 0.0
27/05:30pm 16.5 12.8 8.0 57 4.3 SW 17 28 9 15 - - 0.0
27/05:00pm 16.5 12.1 7.4 55 4.5 SW 20 28 11 15 - - 0.0
27/04:30pm 16.8 10.8 6.9 52 4.9 SSW 28 33 15 18 - - 0.0
27/04:00pm 16.8 10.5 7.2 53 4.8 SSW 30 43 16 23 - - 0.0
27/03:30pm 17.2 10.4 7.5 53 4.9 SSW 33 43 18 23 - - 0.0
27/03:00pm 17.1 10.8 8.8 58 4.3 SSW 32 43 17 23 - - 0.0
27/02:30pm 17.5 11.2 7.3 51 5.1 SSW 30 39 16 21 - - 0.0
27/02:00pm 17.2 10.9 7.3 52 5.0 SW 30 41 16 22 - - 0.0
27/01:30pm 17.9 11.4 8.2 53 5.0 SSW 32 43 17 23 - - 0.0
27/01:00pm 17.6 10.9 8.2 54 4.8 SSW 33 43 18 23 - - 0.0
27/12:30pm 17.2 10.5 8.1 55 4.6 SSW 33 48 18 26 - - 0.0
27/12:03pm 17.4 10.9 8.0 54 4.8 SSW 32 50 17 27 - - 0.0
27/12:00pm 17.2 10.3 7.3 52 5.0 SSW 33 50 18 27 - - 0.0
27/11:53am 16.9 9.9 6.1 49 5.3 SSW 32 50 17 27 - - 0.0
27/11:30am 16.7 9.6 6.2 50 5.1 SSW 33 41 18 22 - - 0.0
27/11:01am 16.7 10.8 7.6 55 4.6 SW 28 50 15 27 - - 0.0
27/11:00am 16.4 10.3 6.5 52 4.8 SW 28 39 15 21 - - 0.0
27/10:30am 16.1 9.5 6.0 51 4.9 SW 30 39 16 21 - - 0.0
27/10:00am 15.8 10.0 4.5 47 5.3 SW 24 37 13 20 - - 0.0
27/09:30am 15.2 8.7 4.9 50 4.8 SW 28 37 15 20 - - 0.0
27/09:00am 14.6 9.9 3.1 46 5.2 SW 17 24 9 13 - - 0.0
27/08:30am 13.9 10.4 3.4 49 4.7 WSW 11 17 6 9 - - 0.0
27/08:00am 12.6 9.1 3.6 54 4.0 W 11 17 6 9 - - 0.0
27/07:30am 12.0 7.7 3.3 55 3.8 WSW 15 20 8 11 - - 0.0
27/07:00am 11.1 7.5 2.9 57 3.6 W 11 15 6 8 - - 0.0
27/06:30am 10.8 6.8 2.9 58 3.4 W 13 17 7 9 - - 0.0
27/06:00am 10.9 7.2 2.5 56 3.6 W 11 15 6 8 - - 0.0
27/05:30am 11.4 6.5 2.2 53 3.9 WSW 17 20 9 11 - - 0.0
27/05:00am 10.2 7.0 3.0 61 3.1 WSW 9 13 5 7 - - 0.0
27/04:30am 10.8 8.0 2.9 58 3.4 WNW 7 9 4 5 - - 0.0
27/04:00am 11.2 8.8 4.4 63 3.1 NW 6 7 3 4 - - 0.0
27/03:30am 12.1 9.8 4.6 60 3.4 WNW 6 9 3 5 - - 0.0
27/03:00am 12.5 9.7 2.9 52 4.2 W 7 13 4 7 - - 0.0
27/02:30am 12.7 9.8 4.4 57 3.8 WSW 9 13 5 7 - - 0.0
27/02:00am 13.3 9.9 4.2 54 4.1 WSW 11 15 6 8 - - 0.0
27/01:30am 14.0 11.3 5.4 56 4.0 WSW 9 13 5 7 - - 0.0
27/01:00am 14.4 10.8 5.2 54 4.3 SW 13 19 7 10 - - 0.0
27/12:30am 14.2 11.6 6.1 58 3.9 SW 9 13 5 7 - - 0.0
27/12:00am 14.3 11.5 7.1 62 3.5 WSW 11 15 6 8 - - 0.0
 
Date/Time
EST
Temp
°C
App
Temp
°C
Dew
Point
°C
Rel
Hum
%
Delta-T
°C
Wind Press
QNH
hPa
Press
MSL
hPa
Rain since
9am
mm
Dir  Spd
km/h
Gust
km/h
Spd
kts
Gust
kts
26/11:30pm 14.7 11.1 6.8 59 3.8 SW 15 20 8 11 - - 0.0
26/11:00pm 14.8 10.6 7.4 61 3.7 SW 19 26 10 14 - - 0.0
26/10:30pm 14.2 10.7 7.3 63 3.4 SW 15 20 8 11 - - 0.0
26/10:00pm 14.5 10.6 7.1 61 3.6 SW 17 24 9 13 - - 0.0
26/09:30pm 14.8 10.9 7.1 60 3.8 WSW 17 22 9 12 - - 0.0
26/09:00pm 14.8 10.9 7.1 60 3.8 WSW 17 22 9 12 - - 0.0
26/08:30pm 15.3 11.4 7.1 58 4.0 SW 17 24 9 13 - - 0.0
26/08:00pm 15.2 11.3 7.0 58 4.0 WSW 17 24 9 13 - - 0.0
26/07:30pm 15.5 11.2 6.8 56 4.3 WSW 19 26 10 14 - - 0.0
26/07:00pm 15.3 12.1 6.8 57 4.2 WSW 13 20 7 11 - - 0.0
26/06:30pm 15.4 10.3 6.2 54 4.4 WSW 22 30 12 16 - - 0.0
26/06:00pm 15.4 11.0 6.4 55 4.4 WSW 19 33 10 18 - - 0.0
26/05:30pm 15.1 12.7 6.9 58 4.0 W 9 13 5 7 - - 0.0
26/05:00pm 15.8 12.6 6.8 55 4.4 WNW 13 20 7 11 - - 0.0
26/04:30pm 16.0 12.9 7.2 56 4.4 SSW 13 24 7 13 - - 0.0
26/04:00pm 16.0 13.6 7.2 56 4.4 WSW 9 20 5 11 - - 0.0
26/03:30pm 15.9 9.6 7.4 57 4.2 WNW 30 43 16 23 - - 0.0
26/03:16pm 15.9 9.1 6.9 55 4.4 WNW 32 50 17 27 - - 0.0
26/03:00pm 16.4 9.9 6.5 52 4.8 W 30 46 16 25 - - 0.0
26/02:30pm 17.2 8.8 5.8 47 5.5 W 39 61 21 33 - - 0.0
26/02:17pm 19.1 12.4 3.7 36 7.3 WNW 28 70 15 38 - - 0.0
26/02:16pm 20.0 13.8 4.5 36 7.5 WNW 26 63 14 34 - - 0.0
26/02:00pm 23.1 18.7 6.4 34 8.5 WNW 19 28 10 15 - - 0.0
26/01:30pm 22.4 19.1 8.1 40 7.5 WNW 15 30 8 16 - - 0.0
26/01:00pm 21.5 19.8 9.7 47 6.4 SSW 9 20 5 11 - - 0.0
26/12:30pm 23.1 20.0 7.2 36 8.3 W 13 24 7 13 - - 0.0
26/12:00pm 23.6 20.0 8.5 38 8.0 NW 17 26 9 14 - - 0.0
26/11:30am 23.1 18.7 7.6 37 8.1 NW 20 37 11 20 - - 0.0
26/11:00am 22.5 17.8 9.3 43 7.1 NNW 24 37 13 20 - - 0.0
26/10:30am 21.8 18.0 9.7 46 6.5 NW 20 26 11 14 - - 0.0
26/10:00am 21.5 18.5 10.6 50 6.0 NNW 17 30 9 16 - - 0.0
26/09:30am 20.8 19.9 11.4 55 5.2 E 7 11 4 6 - - 0.0
26/09:00am 19.8 18.2 10.2 54 5.2 SSE 9 17 5 9 - - 0.2
26/08:30am 19.2 18.3 12.5 65 3.7 SSE 9 13 5 7 - - 0.2
26/08:00am 18.7 18.0 12.0 65 3.7 S 7 11 4 6 - - 0.2
26/07:30am 17.9 15.3 11.9 68 3.3 NNE 17 24 9 13 - - 0.2
26/07:00am 16.1 14.9 11.5 74 2.5 NW 9 19 5 10 - - 0.2
26/06:30am 15.9 14.2 11.1 73 2.6 WNW 11 15 6 8 - - 0.2
26/06:00am 16.3 13.5 11.5 73 2.6 WNW 17 20 9 11 - - 0.2
26/05:30am 16.1 13.7 11.5 74 2.5 WNW 15 22 8 12 - - 0.2
26/05:00am 16.5 13.4 11.6 73 2.7 WNW 19 26 10 14 - - 0.2
26/04:30am 16.6 14.3 11.7 73 2.7 NW 15 20 8 11 - - 0.2
26/04:00am 17.4 15.1 11.7 69 3.1 NW 15 20 8 11 - - 0.2
26/03:30am 18.5 14.8 11.6 64 3.8 WNW 22 30 12 16 - - 0.2
26/03:00am 17.6 14.6 12.5 72 2.8 NW 20 24 11 13 - - 0.2
26/02:30am 17.6 15.3 12.9 74 2.6 NW 17 19 9 10 - - 0.2
26/02:00am 17.9 15.6 13.0 73 2.7 NW 17 24 9 13 - - 0.2
26/01:30am 17.9 17.3 13.6 76 2.4 NW 9 15 5 8 - - 0.2
26/01:00am 18.3 17.1 14.0 76 2.5 NW 13 17 7 9 - - 0.2
26/12:30am 18.8 18.1 13.2 70 3.2 WNW 9 13 5 7 - - 0.2
26/12:00am 19.4 18.5 13.6 69 3.3 NW 11 17 6 9 - - 0.2
 
Date/Time
EST
Temp
°C
App
Temp
°C
Dew
Point
°C
Rel
Hum
%
Delta-T
°C
Wind Press
QNH
hPa
Press
MSL
hPa
Rain since
9am
mm
Dir  Spd
km/h
Gust
km/h
Spd
kts
Gust
kts
25/11:30pm 19.5 18.6 13.7 69 3.3 NW 11 19 6 10 - - 0.2
25/11:00pm 19.7 19.6 13.9 69 3.3 WNW 7 19 4 10 - - 0.2
25/10:30pm 19.2 20.0 14.9 76 2.5 NNW 4 11 2 6 - - 0.2
25/10:00pm 19.6 20.2 15.3 76 2.5 N 6 9 3 5 - - 0.2
25/09:30pm 19.3 20.5 15.0 76 2.5 WNW 2 7 1 4 - - 0.2
25/09:00pm 19.1 21.0 15.8 81 2.0 CALM 0 0 0 0 - - 0.2
25/08:30pm 19.4 20.0 15.9 80 2.1 NNW 7 9 4 5 - - 0.2

Latest Capital City Observations: Canberra | Sydney | Melbourne | Brisbane | Adelaide | Perth | Hobart | Darwin

Other Formats:

Comma delimited format used in spreadsheet applications
http://www.bom.gov.au/fwo/IDN60901/IDN60901.94749.axf

JavaScript Object Notation format (JSON) in row-major order
http://www.bom.gov.au/fwo/IDN60901/IDN60901.94749.json